createdAt,value
2019-03-01T00:03:22.697Z,5.47
2019-03-01T00:08:34.454Z,6.57
2019-03-01T00:14:17.320Z,8.47
2019-03-01T00:19:51.187Z,5.77
2019-03-01T00:25:26.297Z,9.40
2019-03-01T00:30:53.537Z,6.60
2019-03-01T00:36:07.910Z,8.37
2019-03-01T00:41:17.033Z,9.27
2019-03-01T00:46:21.187Z,8.30
2019-03-01T00:51:26.168Z,9.60
2019-03-01T00:56:30.722Z,9.87
2019-03-01T01:01:35.507Z,11.90
2019-03-01T01:06:40.305Z,10.53
2019-03-01T01:11:45.058Z,8.17
2019-03-01T01:16:49.285Z,7.73
2019-03-01T01:21:54.281Z,8.27
2019-03-01T01:27:00.229Z,4.93
2019-03-01T01:32:05.153Z,5.90
2019-03-01T01:37:10.045Z,7.33
2019-03-01T01:42:15.735Z,6.53
2019-03-01T01:47:20.779Z,5.87
2019-03-01T01:52:25.544Z,5.20
2019-03-01T01:57:30.244Z,5.47
2019-03-01T02:02:35.840Z,8.17
2019-03-01T02:07:40.787Z,5.77
2019-03-01T02:12:45.952Z,8.53
2019-03-01T02:17:50.755Z,7.50
2019-03-01T02:22:55.592Z,8.40
2019-03-01T02:28:00.309Z,9.73
2019-03-01T02:33:05.418Z,4.67
2019-03-01T02:38:10.205Z,6.37
2019-03-01T02:43:15.306Z,7.67
2019-03-01T02:48:21.284Z,5.30
2019-03-01T02:53:26.886Z,7.37
2019-03-01T02:58:40.891Z,7.40
2019-03-01T03:03:45.641Z,6.83
2019-03-01T03:08:50.388Z,5.40
2019-03-01T03:13:55.293Z,5.43
2019-03-01T03:18:59.754Z,6.43
2019-03-01T03:24:04.556Z,6.90
2019-03-01T03:29:09.348Z,6.47
2019-03-01T03:34:14.263Z,4.33
2019-03-01T03:39:19.153Z,6.97
2019-03-01T03:44:23.981Z,7.63
2019-03-01T03:49:28.248Z,4.47
2019-03-01T03:54:32.923Z,8.67
2019-03-01T03:59:37.672Z,7.13
2019-03-01T04:04:42.579Z,7.03
2019-03-01T04:09:47.672Z,6.43
2019-03-01T04:14:52.466Z,5.63
2019-03-01T04:19:56.673Z,4.90
2019-03-01T04:25:01.962Z,5.13
2019-03-01T04:30:09.331Z,7.87
2019-03-01T04:35:15.365Z,7.13
2019-03-01T04:40:20.076Z,8.33
2019-03-01T04:45:24.797Z,7.73
2019-03-01T04:50:29.830Z,6.53
2019-03-01T04:55:36.860Z,5.40
2019-03-01T05:00:47.617Z,6.07
2019-03-01T05:05:51.840Z,5.00
2019-03-01T05:10:56.877Z,9.53
2019-03-01T05:16:01.811Z,4.07
2019-03-01T05:21:06.743Z,3.87
2019-03-01T05:26:10.855Z,8.30
2019-03-01T05:31:15.005Z,9.27
2019-03-01T05:36:19.606Z,6.13
2019-03-01T05:41:25.984Z,6.10
2019-03-01T05:46:30.100Z,6.47
2019-03-01T05:51:41.012Z,10.07
2019-03-01T05:56:49.749Z,6.57
2019-03-01T06:02:17.895Z,6.37
2019-03-01T06:08:15.678Z,6.90
2019-03-01T06:13:56.263Z,8.17
2019-03-01T06:19:40.157Z,8.23
2019-03-01T06:25:01.641Z,7.83
2019-03-01T06:30:17.520Z,10.23
2019-03-01T06:35:31.088Z,9.33
2019-03-01T06:41:20.905Z,15.40
2019-03-01T06:47:01.915Z,15.70
2019-03-01T06:52:06.708Z,16.33
2019-03-01T06:57:12.047Z,11.40
2019-03-01T07:02:35.457Z,15.77
2019-03-01T07:07:48.632Z,23.33
2019-03-01T07:12:54.789Z,24.00
2019-03-01T07:18:02.102Z,25.40
2019-03-01T07:23:06.912Z,38.90
2019-03-01T07:28:19.583Z,46.23
2019-03-01T07:33:35.011Z,40.80
2019-03-01T07:38:42.647Z,42.77
2019-03-01T07:43:57.039Z,41.83
2019-03-01T07:49:02.367Z,38.50
2019-03-01T07:54:06.577Z,49.43
2019-03-01T07:59:17.197Z,45.97
2019-03-01T08:04:23.759Z,41.00
2019-03-01T08:09:27.928Z,39.97
2019-03-01T08:15:08.476Z,44.60
2019-03-01T08:20:12.415Z,44.70
2019-03-01T08:25:22.834Z,39.27
2019-03-01T08:30:22.406Z,36.53
2019-03-01T08:35:31.981Z,34.90
2019-03-01T08:40:35.728Z,32.07
2019-03-01T08:45:39.935Z,31.53
2019-03-01T08:50:44.682Z,31.23
2019-03-01T08:55:49.444Z,29.30
2019-03-01T09:00:59.739Z,30.03
2019-03-01T09:06:01.054Z,27.93
2019-03-01T09:11:10.366Z,29.37
2019-03-01T09:16:17.549Z,28.37
2019-03-01T09:21:22.597Z,28.47
2019-03-01T09:26:35.498Z,29.33
2019-03-01T09:31:40.005Z,27.53
2019-03-01T09:36:54.717Z,30.63
2019-03-01T09:42:03.272Z,29.60
2019-03-01T09:47:04.985Z,30.93
2019-03-01T09:52:10.421Z,32.70
2019-03-01T09:57:15.578Z,28.03
2019-03-01T10:02:21.209Z,29.37
2019-03-01T10:07:25.368Z,31.30
2019-03-01T10:12:29.503Z,28.97
2019-03-01T10:17:34.665Z,31.53
2019-03-01T10:22:39.583Z,29.13
2019-03-01T10:27:44.376Z,28.97
2019-03-01T10:32:49.077Z,26.43
2019-03-01T10:37:56.487Z,25.77
2019-03-01T10:43:01.398Z,28.07
2019-03-01T10:48:06.323Z,24.33
2019-03-01T10:53:10.816Z,24.87
2019-03-01T10:58:17.804Z,23.20
2019-03-01T11:03:22.662Z,24.57
2019-03-01T11:08:27.789Z,24.07
2019-03-01T11:13:32.078Z,24.87
2019-03-01T11:18:36.948Z,22.13
2019-03-01T11:23:41.204Z,24.20
2019-03-01T11:28:46.083Z,22.50
2019-03-01T11:33:50.894Z,25.57
2019-03-01T11:38:56.842Z,26.95
2019-03-01T11:44:01.479Z,25.63
2019-03-01T11:49:06.233Z,26.23
2019-03-01T11:54:11.139Z,23.87
2019-03-01T11:59:23.207Z,22.33
2019-03-01T12:04:27.414Z,21.73
2019-03-01T12:09:31.909Z,22.00
2019-03-01T12:14:36.708Z,27.40
2019-03-01T12:19:41.194Z,33.07
2019-03-01T12:24:45.389Z,37.30
2019-03-01T12:29:49.584Z,37.87
2019-03-01T12:34:54.406Z,36.10
2019-03-01T12:39:59.312Z,28.27
2019-03-01T12:45:03.613Z,19.23
2019-03-01T12:50:09.075Z,13.47
2019-03-01T12:55:18.433Z,14.77
2019-03-01T13:00:27.823Z,13.70
2019-03-01T13:05:33.326Z,11.30
2019-03-01T13:10:40.343Z,11.33
2019-03-01T13:15:45.401Z,9.97
2019-03-01T13:20:50.185Z,9.63
2019-03-01T13:26:03.015Z,8.73
2019-03-01T13:31:08.172Z,8.00
2019-03-01T13:36:14.048Z,8.00
2019-03-01T13:41:18.456Z,8.53
2019-03-01T13:46:22.774Z,8.10
2019-03-01T13:51:27.127Z,7.43
2019-03-01T13:56:32.803Z,8.63
2019-03-01T14:01:37.899Z,8.67
2019-03-01T14:06:44.439Z,8.20
2019-03-01T14:11:49.294Z,7.63
2019-03-01T14:16:55.393Z,9.10
2019-03-01T14:21:59.908Z,15.50
2019-03-01T14:27:04.037Z,20.37
2019-03-01T14:32:08.751Z,20.90
2019-03-01T14:37:15.130Z,22.30
2019-03-01T14:42:19.868Z,20.93
2019-03-01T14:47:29.131Z,17.97
2019-03-01T14:52:33.807Z,16.37
2019-03-01T14:57:46.175Z,13.87
2019-03-01T15:03:16.609Z,13.60
2019-03-01T15:08:35.358Z,12.40
2019-03-01T15:13:40.268Z,10.93
2019-03-01T15:18:45.221Z,10.47
2019-03-01T15:23:56.210Z,10.53
2019-03-01T15:28:59.365Z,9.40
2019-03-01T15:34:05.827Z,9.37
2019-03-01T15:39:10.727Z,10.03
2019-03-01T15:44:15.561Z,8.57
2019-03-01T15:49:23.712Z,10.13
2019-03-01T15:54:28.844Z,10.33
2019-03-01T15:59:32.985Z,9.40
2019-03-01T16:04:37.608Z,9.37
2019-03-01T16:09:41.860Z,9.07
2019-03-01T16:14:46.478Z,10.47
2019-03-01T16:19:53.422Z,10.17
2019-03-01T16:24:58.037Z,9.70
2019-03-01T16:30:03.021Z,11.20
2019-03-01T16:35:08.597Z,9.67
2019-03-01T16:40:13.522Z,7.83
2019-03-01T16:45:20.929Z,6.47
2019-03-01T16:50:23.620Z,5.57
2019-03-01T16:55:28.821Z,5.27
2019-03-01T17:00:33.970Z,5.87
2019-03-01T17:05:38.671Z,4.20
2019-03-01T17:10:44.989Z,4.20
2019-03-01T17:15:49.364Z,4.30
2019-03-01T17:20:53.513Z,4.20
2019-03-01T17:25:57.784Z,3.70
2019-03-01T17:31:01.862Z,3.30
2019-03-01T17:36:06.925Z,3.80
2019-03-01T17:41:11.380Z,3.17
2019-03-01T17:46:16.252Z,3.70
2019-03-01T17:51:21.894Z,3.17
2019-03-01T17:56:27.220Z,3.00
2019-03-01T18:01:31.485Z,3.13
2019-03-01T18:06:36.318Z,2.93
2019-03-01T18:11:44.192Z,3.57
2019-03-01T18:16:46.792Z,3.03
2019-03-01T18:21:51.173Z,4.40
2019-03-01T18:26:55.482Z,3.63
2019-03-01T18:31:59.675Z,3.47
2019-03-01T18:37:15.603Z,3.90
2019-03-01T18:42:09.750Z,3.50
2019-03-01T18:47:14.550Z,3.43
2019-03-01T18:52:21.578Z,3.40
2019-03-01T18:57:27.003Z,4.00
2019-03-01T19:02:32.162Z,3.13
2019-03-01T19:07:36.989Z,3.50
2019-03-01T19:12:44.807Z,4.10
2019-03-01T19:17:50.842Z,4.23
2019-03-01T19:22:55.819Z,4.37
2019-03-01T19:28:00.865Z,5.40
2019-03-01T19:33:05.791Z,4.80
2019-03-01T19:38:09.989Z,4.63
2019-03-01T19:43:14.285Z,3.73
2019-03-01T19:48:18.556Z,6.30
2019-03-01T19:53:25.425Z,3.93
2019-03-01T19:58:30.164Z,5.63
2019-03-01T20:03:35.396Z,4.57
2019-03-01T20:08:39.705Z,5.03
2019-03-01T20:13:44.033Z,4.87
2019-03-01T20:18:49.518Z,5.07
2019-03-01T20:23:56.959Z,5.73
2019-03-01T20:29:02.305Z,6.53
2019-03-01T20:34:07.747Z,5.80
2019-03-01T20:39:15.640Z,5.63
2019-03-01T20:44:20.179Z,5.10
2019-03-01T20:49:25.131Z,5.13
2019-03-01T20:54:30.307Z,5.13
2019-03-01T20:59:35.509Z,4.43
2019-03-01T21:04:41.559Z,4.40
2019-03-01T21:09:45.915Z,5.10
2019-03-01T21:14:55.477Z,5.73
2019-03-01T21:20:04.353Z,4.27
2019-03-01T21:25:11.142Z,4.40
2019-03-01T21:30:24.922Z,4.20
2019-03-01T21:35:30.218Z,3.70
2019-03-01T21:40:35.991Z,3.70
2019-03-01T21:45:40.645Z,4.53
2019-03-01T21:50:45.532Z,4.37
2019-03-01T21:55:50.574Z,4.03
2019-03-01T22:00:55.017Z,3.73
2019-03-01T22:05:59.763Z,3.87
2019-03-01T22:11:06.130Z,4.13
2019-03-01T22:16:11.228Z,4.27
2019-03-01T22:21:16.892Z,5.17
2019-03-01T22:26:21.470Z,3.83
2019-03-01T22:31:25.784Z,3.43
2019-03-01T22:36:30.322Z,3.80
2019-03-01T22:41:39.435Z,4.70
2019-03-01T22:46:43.544Z,3.40
2019-03-01T22:51:52.998Z,3.47
2019-03-01T22:56:59.268Z,3.50
2019-03-01T23:02:09.644Z,5.43
2019-03-01T23:07:28.071Z,6.13
2019-03-01T23:12:33.137Z,7.00
2019-03-01T23:17:39.188Z,5.90
2019-03-01T23:22:48.425Z,5.87
2019-03-01T23:27:52.749Z,5.63
2019-03-01T23:33:01.002Z,6.73
2019-03-01T23:38:05.306Z,7.10
2019-03-01T23:43:13.736Z,7.33
2019-03-01T23:48:17.942Z,7.73
2019-03-01T23:53:22.964Z,5.50
2019-03-01T23:58:27.987Z,6.40
